Terminal Aerodrome Forecast
Issued by NWS Denver/Boulder, CO

Home | Current Version | Previous Version | Text Only | Print | Product List | Glossary On
Versions: 1 2 3 4 5 6 7 8 9 10 11 12 13 14 15 16 17 18 19 20 21 22 23 24 25 26 27 28 29 30 31 32 33 34 35 36 37 38 39 40 41 42 43 44 45 46 47 48 49 50
218
FTUS45 KBOU 272034 AAA
TAFDEN
TAF AMD
KDEN 272034Z 2721/2824 14014G21KT P6SM SCT070 SCT120 BKN200
     FM280000 19013KT P6SM VCSH FEW060 BKN090
      TEMPO 2801/2805 -SHRA BKN050
     FM280500 11008KT P6SM VCSH SCT060 BKN100
     FM281100 15010KT P6SM SCT008 BKN015
     FM281500 24008KT P6SM SCT008 BKN010
     FM282100 36008KT P6SM VCSH SCT008 OVC010
      TEMPO 2821/2824 03012G18KT 3SM -SHRA OVC008=

USA.gov is the U.S. government's official web portal to all federal, state and local government web resources and services.